Weather at Birmingham International Airport

Public forecast

Using degrees Celsius for public forecast. Weather courtesy of forecast.io.

Current aviation weather report (METAR) for Birmingham International Airport

Report is more than 2 hours old.

2024/06/24 20:50 (retrieved 3 hours ago)

EGBB 242050Z 27005KT CAVOK 20/15 Q1018

Aviation forecast (TAF) for Birmingham International Airport

2024/06/24 18:00 (retrieved 5 hours ago)

TAF EGBB 241659Z 2418/2518 20004KT 9999 SCT045 PROB30 2423/2507 8000